Time;durP1;ratioP1;P1;durP2;ratioP2;P2;SDS_P1;SDS_P2;PMS_P1;PMS_P2;Temp;Humidity;BMP_temperature;BMP_pressure;BME280_temperature;BME280_humidity;BME280_pressure;Samples;Min_cycle;Max_cycle;Signal;HPM_P1;HPM_P2
2022/05/08 00:01:12;;;;;;;21.80;14.73;;;;;;;14.52;78.05;100777.63;5003470;28;20025;-79
2022/05/08 00:03:41;;;;;;;26.58;14.18;;;;;;;14.50;77.63;100782.56;4984092;28;20540;-78
2022/05/08 00:06:11;;;;;;;23.80;14.45;;;;;;;14.56;77.42;100777.94;4984456;28;20165;-78
2022/05/08 00:08:37;;;;;;;22.63;14.55;;;;;;;14.72;76.33;100781.56;5003777;28;20094;-78
2022/05/08 00:11:03;;;;;;;20.70;13.88;;;;;;;14.57;76.98;100780.41;5003573;28;20040;-79
2022/05/08 00:13:30;;;;;;;25.80;13.05;;;;;;;14.54;76.25;100786.41;5004084;28;20018;-78
2022/05/08 00:15:56;;;;;;;16.73;8.45;;;;;;;14.45;75.30;100774.31;5004076;28;20699;-78
2022/05/08 00:18:23;;;;;;;12.95;7.82;;;;;;;14.28;74.12;100782.72;5003386;28;20100;-78
2022/05/08 00:20:48;;;;;;;16.17;6.57;;;;;;;14.11;73.36;100772.75;5004063;28;20048;-78
2022/05/08 00:23:14;;;;;;;13.00;7.80;;;;;;;14.21;73.17;100778.28;5004206;28;20545;-77
2022/05/08 00:25:39;;;;;;;10.45;5.13;;;;;;;14.22;72.54;100784.59;5003840;28;20092;-79
2022/05/08 00:28:04;;;;;;;9.80;5.40;;;;;;;14.02;72.72;100777.88;5004124;28;20563;-78
2022/05/08 00:30:30;;;;;;;12.50;6.30;;;;;;;14.17;71.79;100779.06;5007347;28;20274;-78
2022/05/08 00:32:55;;;;;;;8.73;4.47;;;;;;;14.12;71.09;100775.22;5003968;28;20037;-79
2022/05/08 00:35:33;;;;;;;13.03;4.33;;;;;;;14.08;71.14;100774.09;5005940;28;20605;-79
2022/05/08 00:37:59;;;;;;;11.68;4.68;;;;;;;13.78;71.52;100783.72;5022883;28;20374;-78
2022/05/08 00:40:24;;;;;;;15.03;4.73;;;;;;;13.86;71.81;100775.03;5007412;28;20116;-78
2022/05/08 00:42:49;;;;;;;9.57;5.18;;;;;;;13.96;71.08;100778.94;5007572;28;20276;-78
2022/05/08 00:45:14;;;;;;;8.37;3.70;;;;;;;13.95;71.00;100782.78;5007450;28;20021;-77
2022/05/08 00:47:40;;;;;;;10.10;4.22;;;;;;;13.91;71.09;100773.41;5006845;28;20282;-78
2022/05/08 00:50:06;;;;;;;12.57;6.63;;;;;;;13.81;71.13;100780.47;5006899;28;20049;-78
2022/05/08 00:52:32;;;;;;;12.85;4.90;;;;;;;13.86;71.24;100775.03;5007264;28;20465;-78
2022/05/08 00:54:57;;;;;;;8.13;4.45;;;;;;;13.86;71.21;100776.94;5007731;28;20037;-79
2022/05/08 00:57:22;;;;;;;16.60;4.15;;;;;;;13.81;71.78;100774.97;5007263;28;20029;-78
2022/05/08 00:59:47;;;;;;;11.00;5.35;;;;;;;13.65;71.78;100782.25;5005996;28;20105;-79
2022/05/08 01:02:13;;;;;;;13.98;5.82;;;;;;;13.69;71.23;100774.34;5006507;28;20025;-78
2022/05/08 01:04:39;;;;;;;14.27;5.75;;;;;;;13.63;71.69;100785.25;5007057;28;20064;-77
2022/05/08 01:07:04;;;;;;;10.13;5.00;;;;;;;13.68;71.57;100779.00;5007200;28;20104;-78
2022/05/08 01:09:30;;;;;;;14.73;4.95;;;;;;;13.42;72.46;100781.47;5007348;28;20060;-78
2022/05/08 01:11:56;;;;;;;18.90;5.40;;;;;;;13.38;72.34;100778.41;5022357;28;20375;-78
2022/05/08 01:14:22;;;;;;;14.50;4.97;;;;;;;13.51;71.81;100782.66;5027093;28;20030;-79
2022/05/08 01:16:47;;;;;;;12.73;4.95;;;;;;;13.50;72.02;100788.41;5026386;28;20103;-78
2022/05/08 01:19:13;;;;;;;11.70;4.72;;;;;;;13.21;73.04;100783.16;5026681;28;20376;-78
2022/05/08 01:21:42;;;;;;;9.50;3.83;;;;;;;13.33;72.29;100781.09;5013095;28;20048;-78
2022/05/08 01:24:09;;;;;;;9.70;4.28;;;;;;;13.41;71.49;100788.03;5006895;28;20037;-78
2022/05/08 01:29:18;;;;;;;24.75;5.75;;;;;;;13.26;72.16;100791.47;5004597;28;20103;-77
2022/05/08 01:31:44;;;;;;;10.65;4.90;;;;;;;13.22;71.75;100791.13;5009976;28;20432;-78
2022/05/08 01:34:09;;;;;;;7.43;3.78;;;;;;;13.29;70.94;100796.41;5006902;28;20045;-78
2022/05/08 01:36:34;;;;;;;10.00;4.53;;;;;;;13.30;71.46;100793.41;5006820;28;20113;-78
2022/05/08 01:39:00;;;;;;;11.10;4.35;;;;;;;13.34;70.80;100798.38;5006285;28;20022;-79
2022/05/08 01:41:25;;;;;;;12.23;5.00;;;;;;;13.28;71.38;100805.72;5006209;28;20038;-79
2022/05/08 01:43:50;;;;;;;11.65;5.50;;;;;;;13.35;71.37;100800.84;5006539;28;20263;-78
2022/05/08 01:46:16;;;;;;;11.97;5.20;;;;;;;13.13;72.36;100806.34;5005337;28;20288;-79
2022/05/08 01:48:41;;;;;;;14.20;6.38;;;;;;;13.21;71.97;100803.16;5006017;28;20788;-77
2022/05/08 01:53:50;;;;;;;9.20;5.22;;;;;;;13.27;71.00;100804.88;5005118;28;20077;-78
2022/05/08 01:56:15;;;;;;;17.60;5.72;;;;;;;13.41;70.30;100808.03;5006725;28;20294;-78
2022/05/08 01:58:41;;;;;;;13.40;4.70;;;;;;;13.32;69.96;100806.84;5006116;28;20370;-79
2022/05/08 02:01:08;;;;;;;11.23;5.43;;;;;;;13.27;71.04;100809.53;5005070;28;20164;-77
2022/05/08 02:03:34;;;;;;;9.68;4.78;;;;;;;13.35;70.32;100805.50;5006141;28;20255;-76
2022/05/08 02:05:59;;;;;;;17.48;5.57;;;;;;;13.14;70.57;100811.56;5006335;28;20454;-78
2022/05/08 02:08:24;;;;;;;12.73;5.82;;;;;;;12.90;71.51;100816.50;5005894;28;20437;-77
2022/05/08 02:10:49;;;;;;;12.65;5.50;;;;;;;13.05;71.16;100813.13;5005128;28;20064;-78
2022/05/08 02:13:15;;;;;;;11.57;6.43;;;;;;;13.14;70.74;100811.56;5006140;28;20476;-78
2022/05/08 02:15:40;;;;;;;11.88;5.85;;;;;;;12.80;71.36;100814.47;5005459;28;20295;-78
2022/05/08 02:18:07;;;;;;;20.67;7.90;;;;;;;12.48;73.23;100811.31;5005589;28;20124;-78
2022/05/08 02:20:33;;;;;;;18.05;8.77;;;;;;;12.69;71.83;100813.50;5005098;28;20029;-78
2022/05/08 02:22:59;;;;;;;12.98;6.82;;;;;;;12.77;72.05;100812.25;5005940;28;20053;-78
2022/05/08 02:25:24;;;;;;;15.98;8.45;;;;;;;12.73;71.62;100820.13;5005568;28;20025;-78
2022/05/08 02:27:51;;;;;;;15.15;7.53;;;;;;;12.63;72.24;100818.06;5005830;28;20026;-78
2022/05/08 02:30:20;;;;;;;13.32;7.22;;;;;;;12.59;71.76;100814.22;5009767;28;20038;-77
2022/05/08 02:32:46;;;;;;;14.30;6.75;;;;;;;12.71;71.83;100814.09;5005686;28;20045;-78
2022/05/08 02:35:12;;;;;;;17.20;7.53;;;;;;;12.71;71.39;100814.09;5005885;28;20030;-78
2022/05/08 02:37:39;;;;;;;12.43;6.90;;;;;;;12.69;71.31;100814.31;5005678;28;20026;-79
2022/05/08 02:40:06;;;;;;;14.60;7.28;;;;;;;12.59;71.33;100816.94;5005546;28;20101;-78
2022/05/08 02:42:32;;;;;;;13.27;7.03;;;;;;;12.49;71.90;100812.13;5005275;28;20496;-78
2022/05/08 02:44:57;;;;;;;13.65;7.65;;;;;;;12.48;71.97;100811.31;5005395;28;20301;-79
2022/05/08 02:47:22;;;;;;;14.18;8.18;;;;;;;12.56;71.61;100823.72;5005308;28;20465;-78
2022/05/08 02:49:47;;;;;;;16.10;6.78;;;;;;;12.41;71.91;100821.59;5005300;28;20037;-78
2022/05/08 02:52:13;;;;;;;15.98;8.25;;;;;;;12.45;72.08;100833.69;5004832;28;20041;-78
2022/05/08 02:54:38;;;;;;;19.70;8.18;;;;;;;12.33;72.42;100830.22;5005509;28;20029;-78
2022/05/08 03:00:08;;;;;;;16.58;8.23;;;;;;;12.41;72.34;100832.53;5004609;28;20048;-77
2022/05/08 03:02:34;;;;;;;13.20;7.43;;;;;;;12.28;72.27;100839.19;5004902;28;20029;-77
2022/05/08 03:05:01;;;;;;;21.80;10.07;;;;;;;12.13;72.63;100839.78;5005025;28;20028;-77
2022/05/08 03:07:26;;;;;;;17.15;8.45;;;;;;;12.25;72.87;100829.59;5004719;28;20026;-79
2022/05/08 03:09:52;;;;;;;14.73;7.57;;;;;;;12.40;72.03;100839.09;5005079;28;20033;-78
2022/05/08 03:12:17;;;;;;;12.73;7.38;;;;;;;12.47;71.90;100847.09;5003682;28;20598;-78
2022/05/08 03:14:42;;;;;;;13.57;6.83;;;;;;;12.44;71.04;100842.16;5004735;28;20029;-78
2022/05/08 03:17:07;;;;;;;16.63;7.93;;;;;;;12.39;70.63;100834.69;5004696;28;20508;-77
2022/05/08 03:19:33;;;;;;;12.33;6.30;;;;;;;12.10;70.43;100843.00;5005093;28;20270;-78
2022/05/08 03:21:59;;;;;;;11.57;6.40;;;;;;;12.03;70.33;100843.13;5004448;28;20657;-78
2022/05/08 03:24:24;;;;;;;11.90;5.20;;;;;;;12.08;68.84;100845.13;5004512;28;20428;-78
2022/05/08 03:26:50;;;;;;;12.82;5.22;;;;;;;11.73;68.96;100856.03;5002788;28;20033;-78
2022/05/08 03:29:15;;;;;;;13.63;5.63;;;;;;;12.09;68.05;100846.78;5004596;28;20037;-78
2022/05/08 03:31:40;;;;;;;11.63;5.07;;;;;;;12.05;66.50;100840.16;5007745;28;20500;-77
2022/05/08 03:34:06;;;;;;;18.73;5.82;;;;;;;12.16;66.24;100846.66;5004395;28;20274;-77
2022/05/08 03:36:31;;;;;;;13.32;5.65;;;;;;;11.95;65.92;100847.13;5004668;28;20080;-77
2022/05/08 03:38:56;;;;;;;17.97;5.20;;;;;;;11.98;65.67;100846.59;5003337;28;20028;-77
2022/05/08 03:41:21;;;;;;;12.47;5.77;;;;;;;12.05;65.12;100848.34;5003681;28;20291;-78
2022/05/08 03:43:47;;;;;;;14.00;4.53;;;;;;;11.99;64.15;100840.09;5003935;28;20259;-78
2022/05/08 03:46:16;;;;;;;10.93;4.78;;;;;;;11.85;64.32;100855.13;5003666;28;20277;-77
2022/05/08 03:48:41;;;;;;;14.48;4.70;;;;;;;11.81;63.23;100851.25;5004302;28;20026;-77
2022/05/08 03:51:08;;;;;;;21.67;6.57;;;;;;;11.78;63.86;100847.91;5003896;28;20030;-78
2022/05/08 03:53:33;;;;;;;14.00;4.70;;;;;;;11.62;64.22;100856.91;5004616;28;20033;-78
2022/05/08 03:55:59;;;;;;;15.85;5.20;;;;;;;11.71;63.69;100852.72;5004111;28;20571;-78
2022/05/08 03:58:24;;;;;;;12.95;5.05;;;;;;;11.60;63.71;100856.31;5004177;28;20028;-78
2022/05/08 04:00:49;;;;;;;14.02;5.65;;;;;;;11.63;63.57;100859.41;5003416;28;20045;-77
2022/05/08 04:03:15;;;;;;;9.98;4.13;;;;;;;11.41;63.65;100854.63;5003651;28;20064;-77
2022/05/08 04:05:40;;;;;;;10.55;4.05;;;;;;;11.59;63.94;100860.16;5003921;28;20026;-77
2022/05/08 04:08:19;;;;;;;20.77;5.15;;;;;;;11.61;63.75;100852.53;5003063;28;20026;-78
2022/05/08 04:10:44;;;;;;;13.13;4.17;;;;;;;11.40;63.74;100846.69;5003127;28;20042;-77
2022/05/08 04:13:09;;;;;;;17.07;5.87;;;;;;;11.49;64.33;100849.88;5004144;28;20695;-77
2022/05/08 04:18:18;;;;;;;18.60;5.88;;;;;;;11.56;63.79;100859.56;5003554;28;20298;-78
2022/05/08 04:20:43;;;;;;;20.48;4.13;;;;;;;11.70;63.69;100856.50;5003124;28;20038;-78
2022/05/08 04:25:53;;;;;;;17.35;5.55;;;;;;;11.24;65.70;100870.13;5003793;28;20824;-78
2022/05/08 04:28:19;;;;;;;12.15;3.67;;;;;;;11.59;64.34;100866.44;5004039;28;20034;-77
2022/05/08 04:30:45;;;;;;;15.27;4.13;;;;;;;11.69;63.77;100868.53;5008309;28;20201;-78
2022/05/08 04:33:11;;;;;;;13.15;4.13;;;;;;;11.77;62.82;100868.13;5003685;28;20475;-78
2022/05/08 04:35:36;;;;;;;15.02;6.65;;;;;;;11.68;63.17;100864.13;5002076;28;20026;-77
2022/05/08 04:38:01;;;;;;;13.60;5.25;;;;;;;11.68;63.16;100872.31;5003430;28;20547;-78
2022/05/08 04:40:27;;;;;;;17.67;4.20;;;;;;;11.55;63.33;100877.00;5003407;28;20461;-78
2022/05/08 04:42:52;;;;;;;18.15;5.53;;;;;;;11.52;63.81;100877.50;5002122;28;20290;-78
2022/05/08 04:45:17;;;;;;;19.10;5.67;;;;;;;11.59;64.37;100877.38;5004055;28;20088;-79
2022/05/08 04:47:43;;;;;;;11.13;4.00;;;;;;;11.61;64.33;100880.69;5003403;28;20707;-78
2022/05/08 04:50:08;;;;;;;13.27;5.27;;;;;;;11.31;66.09;100882.56;5003118;28;20418;-78
2022/05/08 04:52:34;;;;;;;18.50;4.88;;;;;;;11.30;65.22;100880.91;5004006;28;20703;-77
2022/05/08 04:55:03;;;;;;;14.60;4.18;;;;;;;11.44;64.77;100889.66;5003547;28;20496;-78
2022/05/08 04:57:28;;;;;;;16.92;4.85;;;;;;;11.42;65.25;100889.06;5003511;28;20439;-78
2022/05/08 04:59:53;;;;;;;12.93;4.28;;;;;;;11.22;65.50;100884.03;5003970;28;20113;-78
2022/05/08 05:02:18;;;;;;;12.83;4.10;;;;;;;11.45;65.32;100887.75;5002273;28;20381;-78
2022/05/08 05:04:44;;;;;;;13.88;3.53;;;;;;;11.38;64.50;100892.50;5003628;28;20263;-78
2022/05/08 05:10:13;;;;;;;17.83;5.35;;;;;;;11.45;65.10;100904.13;5001741;28;20386;-78
2022/05/08 05:12:39;;;;;;;20.90;4.57;;;;;;;11.56;64.65;100900.53;5003556;28;20053;-79
2022/05/08 05:15:05;;;;;;;10.93;3.90;;;;;;;11.35;65.04;100906.66;5003472;28;20347;-77
2022/05/08 05:17:31;;;;;;;16.55;5.00;;;;;;;11.54;64.95;100902.66;5002988;28;20026;-78
2022/05/08 05:19:56;;;;;;;24.25;6.28;;;;;;;11.64;64.78;100909.41;5003832;28;20137;-78
2022/05/08 05:22:22;;;;;;;18.40;6.00;;;;;;;11.70;64.64;100911.16;5006166;28;20060;-79
2022/05/08 05:24:48;;;;;;;15.98;5.45;;;;;;;11.56;64.71;100911.44;5006738;28;20325;-78
2022/05/08 05:27:13;;;;;;;10.60;4.25;;;;;;;11.46;64.41;100915.88;5007060;28;20080;-77
2022/05/08 05:29:38;;;;;;;19.10;6.40;;;;;;;11.53;64.32;100917.38;5008123;28;20072;-78
2022/05/08 05:32:18;;;;;;;11.85;4.43;;;;;;;11.36;65.62;100909.16;5009549;28;20026;-78
2022/05/08 05:34:43;;;;;;;15.25;5.10;;;;;;;11.53;64.70;100919.31;5006933;28;20428;-78
2022/05/08 05:37:09;;;;;;;18.20;4.43;;;;;;;11.31;65.75;100919.94;5006742;28;20034;-78
2022/05/08 05:39:34;;;;;;;12.60;4.85;;;;;;;11.23;66.52;100925.81;5006815;28;20037;-77
2022/05/08 05:41:59;;;;;;;23.23;6.70;;;;;;;11.33;66.02;100918.63;5005968;28;20413;-78
2022/05/08 05:44:26;;;;;;;28.48;5.25;;;;;;;11.37;66.86;100920.91;5006656;28;20291;-78
2022/05/08 05:49:38;;;;;;;21.27;7.93;;;;;;;11.56;66.21;100922.38;5006507;28;20169;-78
2022/05/08 05:52:05;;;;;;;14.38;4.18;;;;;;;11.56;65.64;100933.31;5005595;28;20535;-78
2022/05/08 05:54:31;;;;;;;13.65;5.22;;;;;;;11.33;66.16;100928.72;5006399;28;20049;-78
2022/05/08 05:56:56;;;;;;;14.40;4.22;;;;;;;11.52;65.61;100931.28;5006462;28;20029;-78
2022/05/08 05:59:21;;;;;;;12.20;5.43;;;;;;;11.83;64.96;100931.91;5005847;28;20541;-78
2022/05/08 06:01:47;;;;;;;19.65;6.97;;;;;;;11.72;64.58;100936.31;5005474;28;20037;-78
2022/05/08 06:04:12;;;;;;;19.97;5.07;;;;;;;11.77;65.46;100950.09;5006234;28;20489;-78
2022/05/08 06:06:38;;;;;;;13.70;3.67;;;;;;;11.79;64.64;100942.50;5005886;28;20267;-77
2022/05/08 06:09:04;;;;;;;14.02;3.78;;;;;;;11.69;64.77;100939.56;5006068;28;20658;-78
2022/05/08 06:11:29;;;;;;;19.85;5.00;;;;;;;11.63;65.34;100938.63;5006027;28;20057;-78
2022/05/08 06:13:55;;;;;;;17.63;6.97;;;;;;;11.83;65.19;100945.56;5005814;28;20395;-78
2022/05/08 06:16:20;;;;;;;10.32;4.53;;;;;;;12.03;64.47;100947.84;5005588;28;20044;-78
2022/05/08 06:18:46;;;;;;;16.88;5.00;;;;;;;11.90;64.00;100948.13;5005783;28;20514;-78
2022/05/08 06:21:11;;;;;;;12.80;3.27;;;;;;;11.88;64.34;100944.81;5005227;28;20038;-77
2022/05/08 06:23:37;;;;;;;16.63;4.15;;;;;;;11.83;63.78;100944.72;5005783;28;20337;-76
2022/05/08 06:26:03;;;;;;;29.38;6.32;;;;;;;11.81;64.88;100944.13;5005575;28;20622;-77
2022/05/08 06:28:29;;;;;;;24.10;5.68;;;;;;;11.80;64.28;100937.84;5006040;28;20543;-78
2022/05/08 06:30:54;;;;;;;19.27;5.63;;;;;;;11.93;64.44;100947.66;5008994;28;20033;-78
2022/05/08 06:33:20;;;;;;;14.88;6.65;;;;;;;11.88;64.34;100950.25;5005398;28;20077;-78
2022/05/08 06:35:45;;;;;;;25.05;4.80;;;;;;;11.90;63.82;100950.84;5005399;28;20112;-77
2022/05/08 06:38:10;;;;;;;23.85;6.20;;;;;;;11.94;63.57;100951.22;5005366;28;20022;-77
2022/05/08 06:40:40;;;;;;;16.90;5.78;;;;;;;11.93;63.75;100958.56;5003300;28;20033;-78
2022/05/08 06:43:06;;;;;;;16.48;6.07;;;;;;;11.89;62.94;100958.25;5005140;28;20034;-77
2022/05/08 06:45:31;;;;;;;19.67;4.80;;;;;;;11.86;63.77;100955.16;5005324;28;20092;-77
2022/05/08 06:47:57;;;;;;;17.10;5.47;;;;;;;11.93;63.26;100953.13;5005264;28;20380;-78
2022/05/08 06:50:22;;;;;;;22.43;5.30;;;;;;;11.91;63.79;100955.25;5005014;28;20070;-78
2022/05/08 06:52:48;;;;;;;29.15;5.93;;;;;;;11.87;62.48;100954.09;5005342;28;20270;-77
2022/05/08 06:55:13;;;;;;;14.60;5.00;;;;;;;11.82;63.44;100952.06;5005485;28;20025;-78
2022/05/08 06:57:39;;;;;;;17.73;5.78;;;;;;;11.87;63.20;100954.09;5005131;28;20037;-78
2022/05/08 07:06:11;;;;;;;18.70;5.13;;;;;;;12.15;62.92;100977.03;4990951;28;20052;-78
2022/05/08 07:08:37;;;;;;;16.02;6.18;;;;;;;11.88;62.67;100970.22;5002771;28;20053;-77
2022/05/08 07:11:02;;;;;;;13.65;3.38;;;;;;;12.00;62.32;100963.91;5003131;28;20038;-78
2022/05/08 07:13:29;;;;;;;9.82;3.63;;;;;;;12.18;62.33;100971.09;5003225;28;20354;-77
2022/05/08 07:15:54;;;;;;;16.63;4.53;;;;;;;12.15;62.09;100977.03;5001877;28;20660;-78
2022/05/08 07:18:20;;;;;;;15.17;4.50;;;;;;;12.27;61.94;100968.75;5018746;28;20157;-78
2022/05/08 07:20:45;;;;;;;11.07;3.60;;;;;;;12.19;62.02;100975.47;5003941;28;20573;-77
2022/05/08 07:23:11;;;;;;;17.97;5.17;;;;;;;12.21;61.98;100976.06;5003484;28;20125;-77
2022/05/08 07:25:38;;;;;;;18.10;5.88;;;;;;;12.48;61.68;100974.59;5004017;28;20275;-77
2022/05/08 07:28:03;;;;;;;15.45;3.90;;;;;;;12.51;61.20;100978.75;5004081;28;20110;-77
2022/05/08 07:30:29;;;;;;;17.20;4.90;;;;;;;12.73;61.60;100982.38;5003023;28;20049;-79
2022/05/08 07:32:54;;;;;;;16.10;4.68;;;;;;;12.73;60.23;100978.81;5003330;28;20519;-78
2022/05/08 07:38:05;;;;;;;18.38;4.53;;;;;;;12.80;61.04;100975.91;5003519;28;20072;-77
2022/05/08 07:40:30;;;;;;;17.73;4.90;;;;;;;12.92;60.14;100982.13;5003311;28;20401;-77
2022/05/08 07:42:56;;;;;;;16.50;3.85;;;;;;;12.67;59.85;100983.38;5003036;28;20037;-78
2022/05/08 07:45:21;;;;;;;14.20;4.13;;;;;;;12.43;60.33;100989.00;5003785;28;20044;-77
2022/05/08 07:47:46;;;;;;;11.40;4.03;;;;;;;12.58;60.00;100995.81;5002831;28;20259;-78
2022/05/08 07:50:12;;;;;;;17.53;4.77;;;;;;;12.55;60.00;100994.41;5003082;28;20427;-77
2022/05/08 07:52:39;;;;;;;15.48;3.53;;;;;;;12.26;60.46;100998.00;5003601;28;20259;-78
2022/05/08 07:55:06;;;;;;;25.23;4.75;;;;;;;12.38;60.61;100999.88;5003682;28;20048;-77
2022/05/08 07:57:45;;;;;;;13.18;4.35;;;;;;;12.57;60.51;101010.59;5004144;28;20057;-78
2022/05/08 08:00:11;;;;;;;23.23;6.60;;;;;;;12.71;60.29;101011.09;5003177;28;20596;-77
2022/05/08 08:02:36;;;;;;;15.30;4.30;;;;;;;12.76;59.39;101013.88;5002999;28;20096;-77
2022/05/08 08:05:01;;;;;;;19.63;5.40;;;;;;;12.59;60.28;101016.63;5002497;28;20101;-77
2022/05/08 08:07:27;;;;;;;13.30;4.68;;;;;;;12.86;59.24;101013.22;5002564;28;20264;-78
2022/05/08 08:09:53;;;;;;;12.50;3.85;;;;;;;12.89;59.36;101020.09;5001783;28;20029;-78
2022/05/08 08:12:19;;;;;;;18.10;4.75;;;;;;;12.89;60.14;101018.22;5000654;28;20107;-78
2022/05/08 08:14:44;;;;;;;11.02;3.40;;;;;;;12.94;59.67;101020.19;5002882;28;20042;-78
2022/05/08 08:17:09;;;;;;;16.90;5.45;;;;;;;12.95;59.32;101021.84;5002288;28;20038;-78
2022/05/08 08:19:35;;;;;;;12.98;4.03;;;;;;;13.14;59.05;101018.84;5003305;28;20141;-78
2022/05/08 08:22:00;;;;;;;7.75;4.32;;;;;;;13.00;59.41;101018.34;5002047;28;20066;-77
2022/05/08 08:24:26;;;;;;;13.38;4.75;;;;;;;12.91;59.56;101020.69;5001524;28;20116;-77
2022/05/08 08:26:51;;;;;;;30.80;4.60;;;;;;;12.91;59.93;101026.16;5003176;28;20014;-78
2022/05/08 08:29:16;;;;;;;10.65;3.85;;;;;;;13.14;60.11;101022.41;5002971;28;20268;-78
2022/05/08 08:31:42;;;;;;;15.95;4.25;;;;;;;13.19;58.59;101022.47;5011282;28;20034;-77
2022/05/08 08:34:07;;;;;;;16.77;5.88;;;;;;;13.05;59.96;101026.66;5003407;28;20037;-78
2022/05/08 08:36:32;;;;;;;11.15;3.53;;;;;;;13.04;59.95;101041.41;5002849;28;20040;-78
2022/05/08 08:38:57;;;;;;;9.83;3.43;;;;;;;13.11;59.08;101025.66;5003168;28;20026;-77
2022/05/08 08:41:27;;;;;;;12.33;3.70;;;;;;;13.33;59.25;101026.75;5002419;28;20334;-78
2022/05/08 08:49:25;;;;;;;10.63;3.45;;;;;;;13.53;58.11;101039.91;5002797;28;20176;-78
2022/05/08 08:51:51;;;;;;;14.57;5.15;;;;;;;13.64;57.25;101032.69;5002080;28;20568;-78
2022/05/08 08:54:20;;;;;;;10.27;3.08;;;;;;;13.63;58.79;101040.06;5003060;28;20044;-78
2022/05/08 08:56:47;;;;;;;14.98;3.53;;;;;;;13.92;56.68;101030.81;5006326;28;20395;-78
2022/05/08 08:59:12;;;;;;;9.93;3.35;;;;;;;14.19;55.08;101037.44;5006510;28;20030;-78
2022/05/08 09:01:44;;;;;;;14.88;3.30;;;;;;;14.03;55.01;101040.00;5005232;28;20539;-78
2022/05/08 09:04:23;;;;;;;12.77;3.58;;;;;;;14.26;54.95;101032.56;5006520;28;20116;-77
2022/05/08 09:06:49;;;;;;;14.80;4.65;;;;;;;14.36;54.38;101029.91;5006499;28;20137;-78
2022/05/08 09:09:24;;;;;;;10.38;3.42;;;;;;;14.35;54.92;101030.19;5006756;28;20392;-78
2022/05/08 09:11:51;;;;;;;14.07;3.28;;;;;;;14.24;54.79;101034.72;5006329;28;20053;-78
2022/05/08 09:14:33;;;;;;;11.48;3.67;;;;;;;14.28;54.33;101033.13;5006530;28;20029;-78
2022/05/08 09:17:01;;;;;;;13.27;4.07;;;;;;;14.74;54.02;101036.56;5006117;28;20026;-79
2022/05/08 09:19:37;;;;;;;10.90;3.05;;;;;;;14.99;54.18;101038.69;5006487;28;20459;-78
2022/05/08 09:22:06;;;;;;;18.70;5.30;;;;;;;15.26;55.68;101029.53;5005432;28;20045;-78
2022/05/08 09:24:32;;;;;;;15.68;4.40;;;;;;;15.23;52.55;101038.31;5006107;28;20030;-78
2022/05/08 09:27:14;;;;;;;8.40;3.05;;;;;;;15.49;53.40;101034.88;5006761;28;20044;-78
2022/05/08 09:29:41;;;;;;;14.85;3.55;;;;;;;15.76;51.92;101034.72;5006360;28;20169;-78
2022/05/08 09:32:07;;;;;;;19.67;4.90;;;;;;;15.44;52.56;101029.38;5005679;28;20037;-79
2022/05/08 09:34:55;;;;;;;18.73;4.47;;;;;;;15.19;52.30;101026.22;5006597;28;20036;-78
2022/05/08 09:37:24;;;;;;;17.55;5.00;;;;;;;15.11;54.18;101023.97;5005503;28;20065;-78
2022/05/08 09:39:49;;;;;;;18.13;4.07;;;;;;;15.37;52.92;101033.19;5005717;28;20635;-78
2022/05/08 09:42:36;;;;;;;11.70;4.10;;;;;;;15.26;51.84;101029.53;5005475;28;20045;-78
2022/05/08 09:45:08;;;;;;;16.45;4.07;;;;;;;15.20;51.41;101029.75;5005491;28;20125;-79
2022/05/08 09:47:45;;;;;;;10.85;3.28;;;;;;;15.36;51.79;101033.44;4990685;28;20027;-78
2022/05/08 09:50:11;;;;;;;10.23;3.63;;;;;;;15.63;52.04;101025.06;4986482;28;20073;-78
2022/05/08 09:52:40;;;;;;;8.25;3.25;;;;;;;15.93;52.12;101025.44;5006057;28;20034;-78
2022/05/08 09:55:12;;;;;;;11.65;3.42;;;;;;;15.76;50.69;101023.72;5005599;28;20026;-79
2022/05/08 09:57:39;;;;;;;11.55;4.05;;;;;;;15.57;51.35;101020.63;5005608;28;20026;-78
2022/05/08 10:00:06;;;;;;;13.30;4.35;;;;;;;15.88;51.17;101019.94;5005654;28;20132;-78
2022/05/08 10:02:31;;;;;;;13.05;3.67;;;;;;;15.92;50.89;101014.72;5005235;28;20037;-79
2022/05/08 10:04:57;;;;;;;12.18;3.85;;;;;;;15.85;50.66;101023.19;5005527;28;20028;-79
2022/05/08 10:07:23;;;;;;;9.00;4.05;;;;;;;15.81;50.39;101027.59;5004786;28;20385;-78
2022/05/08 10:18:44;;;;;;;12.95;4.45;;;;;;;16.33;47.00;101014.81;4985911;28;20045;-78
2022/05/08 10:21:12;;;;;;;18.30;3.27;;;;;;;16.27;47.25;101015.09;4993150;28;20753;-79
2022/05/08 10:23:41;;;;;;;8.77;4.30;;;;;;;16.51;46.49;101020.06;5005664;28;20266;-78
2022/05/08 10:26:17;;;;;;;8.05;2.67;;;;;;;16.37;46.63;101015.13;5005362;28;20515;-79
2022/05/08 10:29:01;;;;;;;10.70;3.28;;;;;;;16.65;46.51;101004.66;5003708;28;20057;-78
2022/05/08 10:31:53;;;;;;;10.77;3.25;;;;;;;16.48;46.46;101015.09;5004386;28;20099;-78
2022/05/08 10:34:32;;;;;;;9.63;2.97;;;;;;;16.38;46.72;101008.50;5000929;28;20266;-78
2022/05/08 10:37:10;;;;;;;9.15;2.92;;;;;;;16.28;46.08;101011.22;5004643;28;20041;-78
2022/05/08 10:39:42;;;;;;;8.93;2.85;;;;;;;16.19;46.42;101011.75;5005256;28;20037;-78
2022/05/08 10:42:29;;;;;;;6.70;2.78;;;;;;;16.37;45.99;101008.78;5003705;28;20081;-78
2022/05/08 10:45:00;;;;;;;6.18;2.42;;;;;;;15.89;46.04;100999.56;5004670;28;20030;-79
2022/05/08 10:47:37;;;;;;;8.18;2.55;;;;;;;16.25;45.64;101000.78;5003810;28;20519;-78
2022/05/08 10:50:13;;;;;;;9.63;2.95;;;;;;;16.41;45.62;100999.72;5004240;28;20521;-78
2022/05/08 10:52:40;;;;;;;11.63;3.40;;;;;;;16.75;45.36;100998.31;4985417;28;20065;-79
2022/05/08 10:55:12;;;;;;;7.28;2.40;;;;;;;16.73;45.65;100994.19;4985069;28;20026;-78
2022/05/08 10:57:39;;;;;;;11.13;3.47;;;;;;;16.88;44.05;100999.66;4999847;28;20031;-78
2022/05/08 11:00:09;;;;;;;6.63;2.35;;;;;;;17.56;44.87;100987.66;4985071;28;20050;-78
2022/05/08 11:02:38;;;;;;;7.32;2.30;;;;;;;16.95;43.94;100995.81;5002715;28;20034;-78
2022/05/08 11:05:04;;;;;;;9.52;3.15;;;;;;;17.10;44.66;100998.53;5004025;28;20113;-78
2022/05/08 11:07:32;;;;;;;6.68;2.92;;;;;;;17.70;43.74;100998.91;5004614;28;20140;-77
2022/05/08 11:09:58;;;;;;;13.18;2.55;;;;;;;17.54;43.22;100993.47;5004128;28;20072;-78
2022/05/08 11:12:24;;;;;;;8.30;2.50;;;;;;;17.70;44.06;100998.91;5003932;28;20046;-78
2022/05/08 11:14:49;;;;;;;12.88;2.50;;;;;;;17.24;43.52;101004.31;5004633;28;20018;-78
2022/05/08 11:17:21;;;;;;;6.43;2.00;;;;;;;17.33;43.88;100992.72;5003546;28;20039;-79
2022/05/08 11:19:51;;;;;;;7.57;3.38;;;;;;;17.29;42.87;100994.41;5002132;28;20341;-79
2022/05/08 11:22:16;;;;;;;8.88;1.88;;;;;;;17.40;42.10;100990.50;5003374;28;20054;-78
2022/05/08 11:27:52;;;;;;;7.18;2.55;;;;;;;17.81;43.31;100988.66;5001313;28;20286;-79
2022/05/08 11:30:32;;;;;;;6.63;1.87;;;;;;;17.91;42.70;100988.59;5002733;28;20080;-79
2022/05/08 11:36:04;;;;;;;10.48;2.20;;;;;;;17.96;42.11;100973.94;5003803;28;20088;-78
2022/05/08 11:38:50;;;;;;;11.18;2.35;;;;;;;18.25;42.34;100978.75;5003468;28;20022;-78
2022/05/08 11:41:16;;;;;;;7.40;2.10;;;;;;;17.92;42.16;100973.69;5003010;28;20053;-79
2022/05/08 11:43:45;;;;;;;8.52;2.47;;;;;;;18.03;41.97;100976.38;5003910;28;20047;-78
2022/05/08 11:46:16;;;;;;;9.20;2.40;;;;;;;17.87;42.65;100967.38;4998943;28;20214;-78
2022/05/08 11:48:43;;;;;;;4.75;2.28;;;;;;;18.08;42.07;100970.84;4984610;28;20046;-79
2022/05/08 11:51:12;;;;;;;8.38;2.78;;;;;;;18.15;41.89;100967.75;5002484;28;20038;-78
2022/05/08 11:53:42;;;;;;;12.95;3.35;;;;;;;18.26;42.15;100965.78;5003002;28;20315;-78
2022/05/08 11:56:28;;;;;;;13.77;3.42;;;;;;;18.37;41.40;100967.34;5003444;28;20046;-78
2022/05/08 11:58:56;;;;;;;33.45;6.07;;;;;;;18.48;42.38;100965.31;5003268;28;20014;-79
2022/05/08 12:01:28;;;;;;;8.75;2.45;;;;;;;18.54;42.05;100966.91;5002550;28;20520;-78
2022/05/08 12:03:55;;;;;;;9.27;2.33;;;;;;;18.28;42.07;100947.00;5017999;28;20511;-78
2022/05/08 12:06:21;;;;;;;4.88;2.00;;;;;;;18.50;43.42;100960.34;5002979;28;20154;-79
2022/05/08 12:08:47;;;;;;;6.88;2.20;;;;;;;18.65;42.45;100947.50;5002790;28;20030;-79